Time;durP1;ratioP1;P1;durP2;ratioP2;P2;SDS_P1;SDS_P2;PMS_P1;PMS_P2;Temp;Humidity;BMP_temperature;BMP_pressure;BME280_temperature;BME280_humidity;BME280_pressure;Samples;Min_cycle;Max_cycle;Signal;HPM_P1;HPM_P2
2023/08/15 00:00:22;;;;;;;10.20;9.20;;;21.30;99.90;;;;;;4884895;29;20397;-80
2023/08/15 00:02:48;;;;;;;10.77;9.67;;;21.30;99.90;;;;;;4883012;29;20751;-80
2023/08/15 00:05:13;;;;;;;11.85;9.45;;;21.40;99.90;;;;;;4881890;29;20404;-79
2023/08/15 00:07:39;;;;;;;9.57;8.77;;;21.30;99.90;;;;;;4878555;29;20414;-80
2023/08/15 00:10:05;;;;;;;10.57;9.45;;;21.30;99.90;;;;;;4867292;29;20426;-80
2023/08/15 00:12:30;;;;;;;10.27;9.38;;;21.30;99.90;;;;;;4891428;29;20397;-79
2023/08/15 00:14:56;;;;;;;10.00;9.00;;;21.30;99.90;;;;;;4900632;29;20429;-79
2023/08/15 00:17:22;;;;;;;10.38;9.40;;;21.30;99.90;;;;;;4900471;29;20400;-79
2023/08/15 00:19:48;;;;;;;10.88;9.73;;;20.90;99.90;;;;;;4900206;29;20444;-79
2023/08/15 00:22:13;;;;;;;10.10;9.20;;;20.80;99.90;;;;;;4886149;29;20413;-80
2023/08/15 00:24:39;;;;;;;10.20;8.85;;;21.20;99.90;;;;;;4885940;29;20407;-80
2023/08/15 00:27:04;;;;;;;10.00;9.10;;;21.20;99.90;;;;;;4894571;29;20498;-79
2023/08/15 00:29:30;;;;;;;9.82;8.93;;;21.20;99.90;;;;;;4894365;29;20463;-78
2023/08/15 00:31:55;;;;;;;10.13;9.10;;;21.80;99.90;;;;;;4896239;29;20428;-79
2023/08/15 00:34:21;;;;;;;9.73;8.93;;;21.50;99.90;;;;;;4886846;29;20404;-79
2023/08/15 00:36:46;;;;;;;9.73;8.93;;;21.30;99.90;;;;;;4884442;29;20404;-80
2023/08/15 00:39:12;;;;;;;10.03;8.90;;;20.90;99.90;;;;;;4884319;29;20399;-80
2023/08/15 00:41:37;;;;;;;9.73;8.83;;;20.90;99.90;;;;;;4883555;29;20488;-80
2023/08/15 00:44:03;;;;;;;9.27;8.47;;;21.20;99.90;;;;;;4884332;29;20500;-80
2023/08/15 00:46:30;;;;;;;8.93;8.20;;;21.10;99.90;;;;;;4882072;29;20500;-80
2023/08/15 00:48:56;;;;;;;10.20;9.20;;;21.10;99.90;;;;;;4884868;29;20968;-80
2023/08/15 00:51:22;;;;;;;11.38;9.20;;;20.60;99.90;;;;;;4884823;29;20482;-80
2023/08/15 00:53:48;;;;;;;9.75;8.75;;;21.10;99.90;;;;;;4884970;29;20868;-80
2023/08/15 00:56:14;;;;;;;9.07;8.35;;;21.20;99.90;;;;;;4878682;29;20426;-80
2023/08/15 00:58:41;;;;;;;11.38;8.30;;;22.00;99.90;;;;;;4863750;29;20924;-80
2023/08/15 01:01:11;;;;;;;9.65;8.65;;;20.50;99.90;;;;;;4864397;29;20481;-80
2023/08/15 01:03:37;;;;;;;10.05;9.15;;;20.40;99.90;;;;;;4881739;29;20435;-80
2023/08/15 01:06:04;;;;;;;10.02;8.90;;;20.90;99.90;;;;;;4882531;29;20408;-80
2023/08/15 01:08:31;;;;;;;9.60;8.60;;;20.80;99.90;;;;;;4881655;29;20421;-80
2023/08/15 01:10:56;;;;;;;9.50;8.60;;;20.80;99.90;;;;;;4883223;29;20412;-80
2023/08/15 01:13:39;;;;;;;11.23;8.70;;;20.60;99.90;;;;;;4880931;29;20460;-80
2023/08/15 01:16:09;;;;;;;9.82;8.85;;;20.80;99.90;;;;;;4880015;29;20916;-80
2023/08/15 01:18:41;;;;;;;10.00;9.00;;;21.10;99.90;;;;;;4866570;29;20414;-80
2023/08/15 01:21:07;;;;;;;8.93;8.20;;;20.80;99.90;;;;;;4865630;29;20505;-80
2023/08/15 01:23:44;;;;;;;10.40;8.80;;;20.80;99.90;;;;;;4864728;29;20503;-80
2023/08/15 01:26:10;;;;;;;9.40;8.50;;;20.80;99.90;;;;;;4863808;29;20539;-80
2023/08/15 01:28:38;;;;;;;9.38;8.48;;;20.20;99.90;;;;;;4878616;29;20943;-80
2023/08/15 01:31:36;;;;;;;9.30;8.30;;;20.80;99.90;;;;;;4880697;29;20570;-80
2023/08/15 01:34:16;;;;;;;10.82;8.80;;;20.80;99.90;;;;;;4877830;29;20430;-80
2023/08/15 01:36:59;;;;;;;9.00;8.10;;;20.90;99.90;;;;;;4875788;29;20391;-79
2023/08/15 01:39:29;;;;;;;9.50;8.68;;;20.80;99.90;;;;;;4873121;29;20414;-80
2023/08/15 01:41:58;;;;;;;8.90;8.20;;;20.80;99.90;;;;;;4866529;29;20752;-80
2023/08/15 01:44:24;;;;;;;8.90;8.20;;;20.30;99.90;;;;;;4881285;29;20755;-80
2023/08/15 01:46:50;;;;;;;9.68;8.77;;;20.20;99.90;;;;;;4885228;29;20404;-80
2023/08/15 01:49:16;;;;;;;9.23;8.23;;;20.80;99.90;;;;;;4884690;29;20444;-80
2023/08/15 01:51:42;;;;;;;9.27;7.90;;;21.10;99.90;;;;;;4887681;29;20428;-80
2023/08/15 01:54:08;;;;;;;9.18;8.38;;;20.80;99.90;;;;;;4886362;29;20415;-80
2023/08/15 01:56:33;;;;;;;8.45;7.65;;;20.70;99.90;;;;;;4886339;29;20389;-80
2023/08/15 01:58:59;;;;;;;8.90;8.10;;;20.30;99.90;;;;;;4886370;29;20396;-80
2023/08/15 02:01:24;;;;;;;9.55;8.65;;;20.50;99.90;;;;;;4887292;29;20420;-80
2023/08/15 02:03:50;;;;;;;9.50;8.70;;;20.50;99.90;;;;;;4871138;29;20433;-80
2023/08/15 02:06:15;;;;;;;9.40;8.60;;;19.90;99.90;;;;;;4876041;29;20408;-80
2023/08/15 02:08:41;;;;;;;11.90;8.27;;;20.20;99.90;;;;;;4884811;29;20488;-79
2023/08/15 02:11:06;;;;;;;9.05;8.25;;;20.50;99.90;;;;;;4889967;29;20431;-80
2023/08/15 02:13:33;;;;;;;9.73;8.80;;;21.90;99.90;;;;;;4893200;29;20447;-80
2023/08/15 02:15:59;;;;;;;11.20;8.60;;;20.30;99.90;;;;;;4882360;29;20401;-79
2023/08/15 02:18:31;;;;;;;9.77;8.88;;;21.10;99.90;;;;;;4868489;29;20398;-80
2023/08/15 02:20:57;;;;;;;8.60;7.80;;;20.60;99.90;;;;;;4878242;29;20417;-80
2023/08/15 02:23:22;;;;;;;8.75;7.80;;;20.60;99.90;;;;;;4887009;29;20849;-80
2023/08/15 02:25:48;;;;;;;9.37;8.47;;;21.00;99.90;;;;;;4887228;29;20407;-80
2023/08/15 02:28:14;;;;;;;9.40;8.50;;;21.30;99.90;;;;;;4886368;29;20412;-80
2023/08/15 02:30:39;;;;;;;9.07;8.13;;;21.10;99.90;;;;;;4885025;29;20420;-80
2023/08/15 02:33:08;;;;;;;9.43;8.60;;;20.10;99.90;;;;;;4885713;29;20413;-80
2023/08/15 02:35:33;;;;;;;9.20;8.40;;;20.50;99.90;;;;;;4885454;29;20400;-80
2023/08/15 02:37:59;;;;;;;14.67;9.23;;;19.90;99.90;;;;;;4884569;29;20925;-80
2023/08/15 02:40:26;;;;;;;9.20;8.35;;;20.20;99.90;;;;;;4886243;29;20494;-80
2023/08/15 02:42:52;;;;;;;10.27;8.80;;;22.30;99.90;;;;;;4920752;23;20474;-80
2023/08/15 02:45:17;;;;;;;8.10;7.30;;;20.40;99.90;;;;;;4904591;29;20752;-80
2023/08/15 02:47:44;;;;;;;8.68;7.95;;;20.70;99.90;;;;;;4905943;29;20406;-80
2023/08/15 02:50:10;;;;;;;9.27;8.30;;;22.30;99.90;;;;;;4900179;29;20436;-80
2023/08/15 02:52:36;;;;;;;14.82;8.63;;;20.80;99.90;;;;;;4885583;29;20768;-80
2023/08/15 02:55:02;;;;;;;9.63;8.50;;;20.50;99.90;;;;;;4869269;29;20406;-81
2023/08/15 02:57:27;;;;;;;8.63;7.80;;;20.50;99.90;;;;;;4868877;29;20445;-79
2023/08/15 02:59:53;;;;;;;9.10;8.30;;;20.50;99.90;;;;;;4869552;29;20399;-80
2023/08/15 03:02:18;;;;;;;9.30;8.23;;;20.50;99.90;;;;;;4884796;29;20412;-80
2023/08/15 03:04:44;;;;;;;9.40;8.50;;;20.40;99.90;;;;;;4872244;29;20439;-80
2023/08/15 03:07:09;;;;;;;9.15;8.35;;;20.40;99.90;;;;;;4867538;29;20406;-80
2023/08/15 03:09:35;;;;;;;9.50;8.60;;;19.90;99.90;;;;;;4865711;29;20422;-80
2023/08/15 03:12:00;;;;;;;9.63;8.73;;;20.50;99.90;;;;;;4866817;29;20782;-80
2023/08/15 03:14:29;;;;;;;9.20;8.40;;;20.40;99.90;;;;;;4876970;29;20785;-80
2023/08/15 03:16:55;;;;;;;8.95;8.15;;;19.80;99.90;;;;;;4876246;29;20406;-80
2023/08/15 03:19:21;;;;;;;10.00;8.95;;;19.80;99.90;;;;;;4864831;29;20411;-80
2023/08/15 03:21:46;;;;;;;9.05;7.93;;;20.20;99.90;;;;;;4866277;29;20417;-80
2023/08/15 03:24:12;;;;;;;10.07;9.17;;;20.40;99.90;;;;;;4865498;29;20442;-80
2023/08/15 03:26:38;;;;;;;10.05;8.88;;;20.50;99.90;;;;;;4870452;29;20908;-80
2023/08/15 03:29:04;;;;;;;9.57;8.73;;;20.10;99.90;;;;;;4884078;29;20439;-80
2023/08/15 03:31:30;;;;;;;9.57;8.02;;;20.10;99.90;;;;;;4883348;29;20397;-80
2023/08/15 03:33:55;;;;;;;10.30;8.87;;;20.10;99.90;;;;;;4869413;29;20406;-80
2023/08/15 03:36:21;;;;;;;9.00;8.20;;;19.50;99.90;;;;;;4864402;29;20402;-80
2023/08/15 03:38:47;;;;;;;10.30;8.80;;;20.00;99.90;;;;;;4865494;29;20398;-80
2023/08/15 03:41:12;;;;;;;11.40;8.45;;;20.00;99.90;;;;;;4866637;29;20409;-80
2023/08/15 03:43:38;;;;;;;10.75;8.40;;;19.20;99.90;;;;;;4876810;29;20518;-80
2023/08/15 03:46:04;;;;;;;8.53;7.60;;;19.70;99.90;;;;;;4883517;29;20419;-80
2023/08/15 03:48:30;;;;;;;9.30;8.30;;;20.10;99.90;;;;;;4883882;29;20452;-80
2023/08/15 03:50:57;;;;;;;9.10;8.20;;;20.10;99.90;;;;;;4884475;29;20814;-80
2023/08/15 03:53:22;;;;;;;9.40;8.00;;;19.80;99.90;;;;;;4870533;29;20462;-80
2023/08/15 03:55:49;;;;;;;9.05;8.20;;;20.40;99.90;;;;;;4865550;29;20410;-80
2023/08/15 03:58:18;;;;;;;10.02;7.93;;;20.00;99.90;;;;;;4864912;29;20816;-80
2023/08/15 04:00:47;;;;;;;9.10;8.20;;;20.00;99.90;;;;;;4865582;29;20891;-80
2023/08/15 04:03:14;;;;;;;9.20;8.30;;;20.10;99.90;;;;;;4878974;29;20843;-80
2023/08/15 04:05:42;;;;;;;10.35;8.70;;;20.10;99.90;;;;;;4883677;29;20741;-80
2023/08/15 04:08:08;;;;;;;8.40;7.70;;;19.10;99.90;;;;;;4884389;29;20625;-79
2023/08/15 04:10:39;;;;;;;9.40;7.40;;;20.70;99.90;;;;;;4875264;29;20450;-79
2023/08/15 04:13:05;;;;;;;11.35;7.57;;;20.00;99.90;;;;;;4863832;29;20418;-79
2023/08/15 04:15:31;;;;;;;8.52;7.72;;;19.60;99.90;;;;;;4864584;29;20473;-79
2023/08/15 04:17:56;;;;;;;9.93;7.87;;;19.90;99.90;;;;;;4863089;29;20945;-79
2023/08/15 04:20:22;;;;;;;9.70;7.87;;;20.20;99.90;;;;;;4867713;29;20500;-79
2023/08/15 04:22:48;;;;;;;8.90;8.00;;;19.80;99.90;;;;;;4882402;29;20503;-79
2023/08/15 04:25:14;;;;;;;8.50;7.20;;;20.90;99.90;;;;;;4881528;29;20515;-79
2023/08/15 04:27:39;;;;;;;8.10;7.30;;;19.80;99.90;;;;;;4882553;29;20429;-80
2023/08/15 04:30:05;;;;;;;9.17;7.80;;;19.50;99.90;;;;;;4877977;29;20434;-80
2023/08/15 04:32:31;;;;;;;8.48;7.22;;;20.00;99.90;;;;;;4872213;29;20843;-79
2023/08/15 04:34:57;;;;;;;8.40;7.10;;;20.00;99.90;;;;;;4877818;29;20545;-80
2023/08/15 04:37:22;;;;;;;9.97;7.53;;;19.90;99.90;;;;;;4881924;29;20486;-80
2023/08/15 04:39:48;;;;;;;9.10;7.80;;;20.00;99.90;;;;;;4877907;29;20446;-79
2023/08/15 04:42:13;;;;;;;9.07;7.45;;;19.90;99.90;;;;;;4884210;29;20400;-79
2023/08/15 04:44:39;;;;;;;9.07;7.63;;;19.00;99.90;;;;;;4885815;29;20842;-80
2023/08/15 04:47:05;;;;;;;8.38;7.30;;;19.80;99.90;;;;;;4883355;29;20889;-80
2023/08/15 04:49:30;;;;;;;8.20;7.40;;;19.80;99.90;;;;;;4885670;29;20916;-79
2023/08/15 04:51:56;;;;;;;9.73;7.43;;;19.80;99.90;;;;;;4884821;29;20501;-80
2023/08/15 04:54:22;;;;;;;8.32;7.63;;;20.80;99.90;;;;;;4883964;29;20404;-79
2023/08/15 04:56:48;;;;;;;8.40;7.60;;;19.90;99.90;;;;;;4883571;29;20396;-79
2023/08/15 04:59:15;;;;;;;9.52;7.80;;;19.60;99.90;;;;;;4865787;29;20406;-79
2023/08/15 05:01:40;;;;;;;9.77;7.63;;;19.60;99.90;;;;;;4882983;29;20403;-79
2023/08/15 05:04:06;;;;;;;11.70;7.80;;;19.90;99.90;;;;;;4883401;29;20429;-79
2023/08/15 05:06:32;;;;;;;8.30;7.10;;;19.90;99.90;;;;;;4882988;29;20881;-79
2023/08/15 05:08:57;;;;;;;8.43;7.07;;;19.90;99.90;;;;;;4883037;29;20492;-79
2023/08/15 05:11:23;;;;;;;9.10;6.90;;;20.10;99.90;;;;;;4867121;29;20779;-79
2023/08/15 05:13:48;;;;;;;8.00;7.20;;;19.40;99.90;;;;;;4863230;29;20418;-80
2023/08/15 05:16:14;;;;;;;8.57;6.77;;;19.50;99.90;;;;;;4873924;29;20408;-79
2023/08/15 05:18:39;;;;;;;9.50;6.75;;;20.10;99.90;;;;;;4881108;29;20397;-79
2023/08/15 05:21:05;;;;;;;7.83;6.63;;;20.10;99.90;;;;;;4881596;29;20400;-80
2023/08/15 05:23:30;;;;;;;7.77;6.97;;;20.20;99.90;;;;;;4881528;29;20444;-80
2023/08/15 05:25:56;;;;;;;7.10;6.30;;;20.30;99.90;;;;;;4873696;29;20414;-80
2023/08/15 05:28:21;;;;;;;9.20;7.00;;;21.00;99.90;;;;;;4877849;29;20419;-80
2023/08/15 05:30:47;;;;;;;7.87;7.07;;;20.30;99.90;;;;;;4882151;29;20412;-80
2023/08/15 05:33:13;;;;;;;7.60;6.90;;;20.30;99.90;;;;;;4881713;29;20389;-80
2023/08/15 05:35:40;;;;;;;7.50;6.00;;;20.50;99.90;;;;;;4882278;29;20389;-80
2023/08/15 05:38:05;;;;;;;11.27;6.50;;;21.10;99.90;;;;;;4870230;29;20775;-80
2023/08/15 05:40:33;;;;;;;7.70;6.25;;;20.50;99.90;;;;;;4864085;29;20402;-80
2023/08/15 05:42:58;;;;;;;8.32;6.20;;;20.10;99.90;;;;;;4866746;29;20423;-80
2023/08/15 05:45:24;;;;;;;9.38;7.03;;;20.20;99.90;;;;;;4880312;29;20416;-80
2023/08/15 05:47:49;;;;;;;8.50;6.80;;;20.00;99.90;;;;;;4880074;29;20492;-80
2023/08/15 05:50:15;;;;;;;7.30;6.43;;;20.40;99.90;;;;;;4881258;29;20445;-80
2023/08/15 05:52:41;;;;;;;8.97;7.00;;;20.50;99.90;;;;;;4881643;29;20408;-80
2023/08/15 05:55:06;;;;;;;7.65;6.95;;;20.50;99.90;;;;;;4863096;29;20478;-80
2023/08/15 05:57:32;;;;;;;7.47;6.43;;;20.40;99.90;;;;;;4868362;29;20390;-79
2023/08/15 05:59:58;;;;;;;10.60;7.27;;;20.40;99.90;;;;;;4877760;29;20831;-80
2023/08/15 06:02:23;;;;;;;8.05;6.70;;;20.40;99.90;;;;;;4889101;29;20412;-79
2023/08/15 06:04:49;;;;;;;7.97;6.87;;;21.10;99.90;;;;;;4893058;29;20780;-80
2023/08/15 06:07:14;;;;;;;7.43;6.60;;;20.10;99.90;;;;;;4884295;29;20411;-79
2023/08/15 06:09:40;;;;;;;9.07;6.33;;;20.40;99.90;;;;;;4884320;29;20408;-80
2023/08/15 06:12:06;;;;;;;9.70;6.60;;;20.50;99.90;;;;;;4879727;29;20418;-79
2023/08/15 06:14:32;;;;;;;8.40;6.38;;;20.50;99.90;;;;;;4877047;29;20409;-79
2023/08/15 06:16:57;;;;;;;7.53;6.80;;;20.50;99.90;;;;;;4893664;29;20415;-79
2023/08/15 06:19:23;;;;;;;8.07;6.80;;;20.10;99.90;;;;;;4888710;29;20769;-80
2023/08/15 06:21:48;;;;;;;8.40;6.63;;;20.60;99.90;;;;;;4884154;29;20784;-80
2023/08/15 06:24:14;;;;;;;7.43;6.63;;;20.20;99.90;;;;;;4884249;29;20404;-80
2023/08/15 06:26:40;;;;;;;7.28;6.38;;;20.70;99.90;;;;;;4872648;29;20840;-81
2023/08/15 06:29:06;;;;;;;6.55;5.85;;;20.80;99.90;;;;;;4869441;29;20423;-80
2023/08/15 06:31:35;;;;;;;7.43;6.60;;;20.80;99.90;;;;;;4875996;29;20436;-80
2023/08/15 06:34:02;;;;;;;8.35;6.65;;;20.90;99.90;;;;;;4877795;29;20419;-80
2023/08/15 06:36:28;;;;;;;8.13;6.50;;;21.00;99.90;;;;;;4877646;29;20894;-80
2023/08/15 06:38:54;;;;;;;10.60;6.60;;;20.90;99.90;;;;;;4888004;29;20448;-80
2023/08/15 06:41:19;;;;;;;7.50;6.80;;;20.30;99.90;;;;;;4888283;29;20479;-80
2023/08/15 06:43:46;;;;;;;6.87;6.00;;;21.20;99.90;;;;;;4887532;29;20412;-80
2023/08/15 06:46:11;;;;;;;6.93;6.10;;;21.20;99.90;;;;;;4888362;29;21047;-80
2023/08/15 06:48:37;;;;;;;6.72;6.13;;;21.50;99.90;;;;;;4877150;29;20418;-80
2023/08/15 06:51:03;;;;;;;7.13;6.20;;;21.30;99.90;;;;;;4869852;29;20474;-81
2023/08/15 06:53:32;;;;;;;6.47;5.87;;;21.40;99.90;;;;;;4868431;29;20399;-80
2023/08/15 06:55:58;;;;;;;7.30;6.28;;;21.40;99.90;;;;;;4868832;29;20403;-80
2023/08/15 06:58:25;;;;;;;5.70;4.90;;;21.60;99.90;;;;;;4875475;29;20403;-80
2023/08/15 07:00:51;;;;;;;6.30;4.00;;;21.30;99.90;;;;;;4886701;29;20412;-80
2023/08/15 07:03:18;;;;;;;4.40;4.00;;;22.00;99.90;;;;;;4892267;29;20436;-80
2023/08/15 07:05:44;;;;;;;3.13;2.40;;;22.30;99.90;;;;;;4894264;29;20489;-79
2023/08/15 07:08:10;;;;;;;4.03;3.05;;;23.10;99.90;;;;;;4868254;29;20474;-80
2023/08/15 07:10:36;;;;;;;3.90;2.30;;;23.30;99.90;;;;;;4868688;29;20414;-80
2023/08/15 07:13:02;;;;;;;2.15;1.95;;;23.40;99.90;;;;;;4868440;29;20412;-81
2023/08/15 07:15:28;;;;;;;2.42;2.03;;;24.20;99.90;;;;;;4869365;29;20470;-80
2023/08/15 07:17:53;;;;;;;3.40;2.30;;;24.50;99.90;;;;;;4884018;29;20404;-80
2023/08/15 07:20:19;;;;;;;3.27;2.07;;;25.10;99.90;;;;;;4876962;29;20519;-81
2023/08/15 07:22:45;;;;;;;3.40;2.10;;;24.50;99.90;;;;;;4888818;29;20429;-81
2023/08/15 07:25:11;;;;;;;4.40;2.10;;;24.60;99.90;;;;;;4887659;29;20397;-81
2023/08/15 07:27:37;;;;;;;3.90;1.90;;;24.40;99.90;;;;;;4879159;29;20413;-81
2023/08/15 07:30:05;;;;;;;3.08;2.20;;;24.40;99.90;;;;;;4875613;29;20991;-81
2023/08/15 07:32:31;;;;;;;8.50;2.00;;;24.40;99.90;;;;;;4885535;29;20417;-81
2023/08/15 07:34:57;;;;;;;4.55;2.10;;;24.20;99.90;;;;;;4881815;29;20413;-81
2023/08/15 07:37:22;;;;;;;3.10;2.23;;;25.10;99.90;;;;;;4888692;29;20400;-81
2023/08/15 07:40:00;;;;;;;3.40;2.30;;;24.20;99.90;;;;;;4888962;29;20400;-81
2023/08/15 07:42:26;;;;;;;3.40;2.20;;;24.20;99.90;;;;;;4888001;29;20515;-81
2023/08/15 07:44:52;;;;;;;3.20;1.90;;;24.20;99.90;;;;;;4887486;29;20530;-81
2023/08/15 07:47:18;;;;;;;2.30;2.10;;;24.40;99.90;;;;;;4887696;29;20404;-80
2023/08/15 07:49:44;;;;;;;2.17;1.97;;;24.30;99.90;;;;;;4887410;29;20424;-81
2023/08/15 07:52:09;;;;;;;2.30;1.92;;;23.50;99.90;;;;;;4887975;29;20834;-81
2023/08/15 07:54:35;;;;;;;2.70;2.00;;;23.70;99.90;;;;;;4886749;29;20464;-81
2023/08/15 07:57:00;;;;;;;4.75;2.00;;;23.80;99.90;;;;;;4885261;29;20429;-81
2023/08/15 07:59:26;;;;;;;2.20;2.00;;;23.70;99.90;;;;;;4888411;29;20472;-80
2023/08/15 08:01:51;;;;;;;3.20;2.70;;;23.90;99.90;;;;;;4886653;29;20400;-81
2023/08/15 08:04:19;;;;;;;2.25;1.90;;;24.10;99.90;;;;;;4885335;29;20454;-81
2023/08/15 08:06:45;;;;;;;3.40;2.10;;;24.30;99.90;;;;;;4887900;29;20495;-80
2023/08/15 08:09:10;;;;;;;2.88;2.20;;;24.40;99.90;;;;;;4887127;29;20444;-81
2023/08/15 08:11:36;;;;;;;2.40;1.80;;;24.90;99.90;;;;;;4884065;29;20951;-80
2023/08/15 08:14:03;;;;;;;2.75;2.00;;;25.40;99.90;;;;;;4869063;29;20462;-81
2023/08/15 08:16:29;;;;;;;4.30;2.00;;;25.60;99.90;;;;;;4866194;29;20395;-80
2023/08/15 08:18:55;;;;;;;2.10;1.90;;;25.10;99.90;;;;;;4865684;29;20411;-81
2023/08/15 08:21:20;;;;;;;2.90;2.00;;;25.60;99.90;;;;;;4875464;29;20444;-80
2023/08/15 08:23:46;;;;;;;2.33;1.90;;;25.60;99.90;;;;;;4885395;29;20796;-82
2023/08/15 08:26:11;;;;;;;1.93;1.70;;;25.80;99.90;;;;;;4885852;29;20408;-80
2023/08/15 08:28:37;;;;;;;2.30;1.60;;;25.40;99.90;;;;;;4880301;29;20906;-80
2023/08/15 08:31:03;;;;;;;2.10;1.80;;;25.80;99.90;;;;;;4877809;29;20412;-80
2023/08/15 08:33:28;;;;;;;2.10;1.90;;;26.00;99.90;;;;;;4877842;29;20405;-81
2023/08/15 08:35:54;;;;;;;3.00;2.00;;;26.20;99.90;;;;;;4882361;29;20448;-81
2023/08/15 08:38:20;;;;;;;3.83;2.13;;;26.20;99.90;;;;;;4879554;29;20412;-80
2023/08/15 08:40:47;;;;;;;2.97;1.70;;;26.40;99.90;;;;;;4864829;29;20414;-80
2023/08/15 08:43:14;;;;;;;2.30;2.10;;;25.70;99.90;;;;;;4895430;23;20444;-79
2023/08/15 08:45:45;;;;;;;2.78;2.10;;;26.00;1.00;;;;;;4921689;29;20417;-79
2023/08/15 08:48:11;;;;;;;3.20;2.10;;;25.40;1.00;;;;;;4919595;29;20477;-80
2023/08/15 08:50:38;;;;;;;5.05;2.30;;;26.60;1.00;;;;;;4918408;29;20427;-81
2023/08/15 08:53:04;;;;;;;3.85;2.15;;;26.60;1.00;;;;;;4918849;29;20413;-79
2023/08/15 08:55:31;;;;;;;2.10;1.90;;;26.90;1.00;;;;;;4903305;29;20895;-80
2023/08/15 08:58:00;;;;;;;2.60;1.90;;;26.80;1.00;;;;;;4903784;29;20406;-80
2023/08/15 09:00:31;;;;;;;2.70;1.90;;;27.10;1.00;;;;;;4902694;29;20402;-80
2023/08/15 09:02:57;;;;;;;3.22;2.30;;;27.10;1.00;;;;;;4900782;29;20407;-82
2023/08/15 09:05:22;;;;;;;4.80;2.20;;;27.00;1.00;;;;;;4900201;29;20414;-79
2023/08/15 09:07:49;;;;;;;2.92;2.17;;;26.20;1.00;;;;;;4901124;29;20425;-80
2023/08/15 09:10:14;;;;;;;2.70;2.20;;;26.90;1.00;;;;;;4898690;29;20483;-80
2023/08/15 09:12:40;;;;;;;2.90;2.20;;;26.70;1.00;;;;;;4899065;29;20850;-80
2023/08/15 09:15:10;;;;;;;2.40;2.20;;;26.70;35.50;;;;;;4901938;29;20453;-80
2023/08/15 09:17:39;;;;;;;3.85;2.10;;;26.60;1.00;;;;;;4896789;29;20418;-82
2023/08/15 09:20:16;;;;;;;2.75;2.28;;;26.70;1.00;;;;;;4911105;29;20410;-80
2023/08/15 09:22:45;;;;;;;3.22;2.30;;;26.60;1.00;;;;;;4910144;29;20418;-81
2023/08/15 09:25:15;;;;;;;2.58;2.30;;;26.50;1.00;;;;;;4911090;29;20456;-81
2023/08/15 09:27:41;;;;;;;3.20;2.20;;;26.60;1.00;;;;;;4916478;29;20417;-80
2023/08/15 09:30:14;;;;;;;2.75;2.40;;;26.70;1.00;;;;;;4905816;29;20417;-80
2023/08/15 09:32:40;;;;;;;3.25;2.40;;;26.70;1.00;;;;;;4916954;29;20422;-80
2023/08/15 09:35:09;;;;;;;3.25;2.10;;;26.60;1.00;;;;;;4916882;29;20398;-79
2023/08/15 09:37:39;;;;;;;2.90;2.30;;;26.70;1.00;;;;;;4917453;29;20406;-80
2023/08/15 09:40:07;;;;;;;3.97;2.60;;;26.80;1.00;;;;;;4917668;29;20430;-80
2023/08/15 09:42:32;;;;;;;3.67;2.40;;;26.70;1.50;;;;;;4915884;29;20383;-79
2023/08/15 09:44:58;;;;;;;4.50;2.20;;;26.60;1.00;;;;;;4914326;29;20403;-80
2023/08/15 09:47:25;;;;;;;2.92;2.50;;;26.50;6.60;;;;;;4915897;29;20478;-80
2023/08/15 09:49:52;;;;;;;3.30;2.00;;;26.50;1.00;;;;;;4916777;29;20430;-80
2023/08/15 09:52:19;;;;;;;3.15;2.08;;;26.50;1.00;;;;;;4917007;29;20410;-81
2023/08/15 09:54:45;;;;;;;3.10;1.83;;;26.40;12.50;;;;;;4915280;29;20403;-80
2023/08/15 09:57:11;;;;;;;3.53;2.17;;;28.30;10.60;;;;;;4907928;29;20411;-81
2023/08/15 09:59:37;;;;;;;2.60;2.00;;;26.60;20.00;;;;;;4908100;29;20475;-81
2023/08/15 10:02:09;;;;;;;2.70;1.67;;;26.40;23.60;;;;;;4907908;29;20403;-80
2023/08/15 10:04:35;;;;;;;2.70;1.80;;;26.20;31.20;;;;;;4906993;29;20410;-79
2023/08/15 10:07:01;;;;;;;2.80;1.73;;;26.10;30.20;;;;;;4907709;29;20466;-79
2023/08/15 10:09:30;;;;;;;2.50;1.90;;;26.00;36.60;;;;;;4908013;29;20417;-80
2023/08/15 10:11:57;;;;;;;3.20;2.00;;;25.60;33.20;;;;;;4914391;29;20410;-81
2023/08/15 10:14:23;;;;;;;3.03;2.33;;;26.10;23.20;;;;;;4910928;29;20481;-81
2023/08/15 10:16:49;;;;;;;2.20;2.00;;;26.70;27.00;;;;;;4911217;29;20779;-81
2023/08/15 10:19:17;;;;;;;4.78;2.10;;;27.70;13.40;;;;;;4914590;29;20395;-81
2023/08/15 10:21:50;;;;;;;2.95;2.20;;;26.70;29.90;;;;;;4911856;29;20493;-79
2023/08/15 10:24:15;;;;;;;3.00;1.90;;;26.60;45.50;;;;;;4908858;29;20423;-79
2023/08/15 10:26:43;;;;;;;2.77;2.00;;;26.60;51.20;;;;;;4910484;29;20406;-79
2023/08/15 10:29:08;;;;;;;3.10;2.00;;;26.30;50.90;;;;;;4909072;29;20400;-79
2023/08/15 10:31:36;;;;;;;2.70;2.00;;;26.60;45.20;;;;;;4916800;29;20441;-79
2023/08/15 10:34:03;;;;;;;3.55;2.08;;;25.90;30.30;;;;;;4913598;29;20429;-79
2023/08/15 10:36:30;;;;;;;2.72;2.13;;;26.50;32.20;;;;;;4915855;29;20406;-78
2023/08/15 10:38:55;;;;;;;2.25;1.83;;;26.30;21.30;;;;;;4910939;29;20475;-78
2023/08/15 10:41:21;;;;;;;2.30;2.00;;;26.50;18.70;;;;;;4911223;29;20403;-79
2023/08/15 10:43:52;;;;;;;2.90;1.70;;;26.70;13.30;;;;;;4903511;29;20539;-80
2023/08/15 10:46:24;;;;;;;2.80;1.83;;;26.90;1.00;;;;;;4908457;29;20413;-79
2023/08/15 10:48:54;;;;;;;2.85;1.92;;;27.00;1.00;;;;;;4909010;29;20403;-79
2023/08/15 10:51:23;;;;;;;2.67;1.80;;;27.10;1.00;;;;;;4910671;29;20426;-80
2023/08/15 10:53:51;;;;;;;3.50;1.70;;;26.40;1.00;;;;;;4909620;29;20892;-79
2023/08/15 10:56:25;;;;;;;3.58;1.70;;;27.20;99.90;;;;;;4908740;29;20399;-79
2023/08/15 10:58:51;;;;;;;4.00;2.05;;;28.10;91.00;;;;;;4908680;29;21176;-79
2023/08/15 11:01:18;;;;;;;3.40;1.80;;;27.40;96.10;;;;;;4905383;29;20423;-80
2023/08/15 11:03:46;;;;;;;2.60;1.70;;;27.50;1.00;;;;;;4909366;29;20418;-79
2023/08/15 11:06:12;;;;;;;2.42;1.88;;;27.00;1.00;;;;;;4910252;29;20447;-79
2023/08/15 11:08:56;;;;;;;3.70;2.10;;;27.50;1.00;;;;;;4908976;29;20462;-79
2023/08/15 11:11:22;;;;;;;2.80;2.00;;;27.10;99.90;;;;;;4908413;29;20447;-79
2023/08/15 11:13:50;;;;;;;1.75;1.65;;;26.90;99.90;;;;;;4907938;29;20430;-79
2023/08/15 11:16:20;;;;;;;1.50;1.40;;;28.10;99.90;;;;;;4908055;29;20451;-79
2023/08/15 11:18:47;;;;;;;4.87;1.90;;;28.10;99.90;;;;;;4907602;29;20399;-79
2023/08/15 11:21:14;;;;;;;1.95;1.60;;;28.30;12.00;;;;;;4909242;29;20395;-80
2023/08/15 11:23:41;;;;;;;2.60;1.50;;;28.20;1.00;;;;;;4911058;29;20462;-79
2023/08/15 11:26:09;;;;;;;2.70;1.67;;;28.30;1.00;;;;;;4905421;29;20532;-79
2023/08/15 11:28:36;;;;;;;2.70;1.75;;;28.30;1.00;;;;;;4906207;29;20519;-82
2023/08/15 11:31:06;;;;;;;3.38;1.60;;;28.70;1.00;;;;;;4905043;29;20419;-80
2023/08/15 11:33:32;;;;;;;2.92;2.05;;;28.60;1.00;;;;;;4907548;29;20791;-79
2023/08/15 11:36:06;;;;;;;2.00;1.80;;;28.90;1.00;;;;;;4904874;29;20463;-79
2023/08/15 11:38:33;;;;;;;3.25;1.90;;;29.10;1.00;;;;;;4904847;29;20803;-79
2023/08/15 11:40:59;;;;;;;2.03;1.60;;;28.20;1.00;;;;;;4905647;29;20402;-79
2023/08/15 11:43:32;;;;;;;2.03;1.60;;;29.20;1.00;;;;;;4908675;29;20443;-79
2023/08/15 11:46:04;;;;;;;2.40;1.75;;;29.30;90.20;;;;;;4912744;29;20395;-78
2023/08/15 11:48:31;;;;;;;2.25;1.80;;;28.60;99.90;;;;;;4911948;29;20403;-79
2023/08/15 11:50:57;;;;;;;1.63;1.52;;;28.40;1.00;;;;;;4910779;29;20448;-79
2023/08/15 11:53:22;;;;;;;2.83;1.70;;;28.50;1.00;;;;;;4908854;29;20445;-80
2023/08/15 11:55:48;;;;;;;2.70;1.70;;;28.50;1.00;;;;;;4908010;29;20391;-79
2023/08/15 11:58:27;;;;;;;1.88;1.70;;;28.70;1.00;;;;;;4910536;29;20391;-79
2023/08/15 12:00:54;;;;;;;2.20;1.60;;;28.40;32.00;;;;;;4901689;29;20406;-78
2023/08/15 12:03:20;;;;;;;1.83;1.67;;;29.00;59.50;;;;;;4910209;29;20433;-79
2023/08/15 12:05:49;;;;;;;1.98;1.80;;;28.80;99.90;;;;;;4904549;29;20697;-79
2023/08/15 12:08:16;;;;;;;3.60;1.70;;;28.50;99.90;;;;;;4905865;29;20403;-79
2023/08/15 12:10:42;;;;;;;3.50;1.80;;;29.00;99.90;;;;;;4905880;29;20415;-79
2023/08/15 12:13:08;;;;;;;1.70;1.60;;;28.70;99.90;;;;;;4904692;29;20395;-79
2023/08/15 12:15:33;;;;;;;2.10;1.90;;;28.60;99.90;;;;;;4904856;29;20424;-79
2023/08/15 12:17:59;;;;;;;2.47;2.07;;;28.80;99.90;;;;;;4904017;29;20891;-80
2023/08/15 12:20:24;;;;;;;2.77;1.80;;;30.60;99.90;;;;;;4905562;29;20407;-79
2023/08/15 12:22:50;;;;;;;1.97;1.70;;;29.70;99.90;;;;;;4898253;29;20434;-79
2023/08/15 12:25:15;;;;;;;2.40;1.65;;;29.40;99.90;;;;;;4906653;29;20403;-79
2023/08/15 12:27:41;;;;;;;2.67;1.70;;;29.00;99.90;;;;;;4905690;29;20914;-79
2023/08/15 12:30:07;;;;;;;2.50;1.70;;;28.40;99.90;;;;;;4905613;29;20422;-79
2023/08/15 12:32:33;;;;;;;2.67;1.95;;;28.30;99.90;;;;;;4905562;29;20395;-79
2023/08/15 12:34:59;;;;;;;2.20;2.00;;;28.00;99.90;;;;;;4902988;29;20780;-80
2023/08/15 12:37:25;;;;;;;3.13;2.00;;;27.70;99.90;;;;;;4903249;29;20403;-79
2023/08/15 12:39:51;;;;;;;2.13;1.92;;;26.90;99.90;;;;;;4908561;29;20410;-80
2023/08/15 12:42:16;;;;;;;2.50;1.90;;;27.70;99.90;;;;;;4909609;29;20395;-80
2023/08/15 12:44:42;;;;;;;3.15;1.75;;;27.20;99.90;;;;;;4903808;29;20437;-80